sensor_id;sensor_type;location;lat;lon;timestamp;P1;durP1;ratioP1;P2;durP2;ratioP2
50757;SDS011;36732;47.980;11.652;2023-05-23T00:00:43;7.03;;;5.15;;
50757;SDS011;36732;47.980;11.652;2023-05-23T00:03:09;5.07;;;4.60;;
50757;SDS011;36732;47.980;11.652;2023-05-23T00:05:35;6.63;;;5.22;;
50757;SDS011;36732;47.980;11.652;2023-05-23T00:08:01;7.43;;;5.45;;
50757;SDS011;36732;47.980;11.652;2023-05-23T00:10:27;5.90;;;5.38;;
50757;SDS011;36732;47.980;11.652;2023-05-23T00:12:53;6.63;;;5.90;;
50757;SDS011;36732;47.980;11.652;2023-05-23T00:15:19;5.88;;;5.13;;
50757;SDS011;36732;47.980;11.652;2023-05-23T00:17:45;7.03;;;5.53;;
50757;SDS011;36732;47.980;11.652;2023-05-23T00:20:11;7.45;;;5.43;;
50757;SDS011;36732;47.980;11.652;2023-05-23T00:22:37;7.95;;;5.50;;
50757;SDS011;36732;47.980;11.652;2023-05-23T00:25:07;5.50;;;4.97;;
50757;SDS011;36732;47.980;11.652;2023-05-23T00:27:34;5.60;;;5.03;;
50757;SDS011;36732;47.980;11.652;2023-05-23T00:30:00;6.18;;;5.32;;
50757;SDS011;36732;47.980;11.652;2023-05-23T00:32:27;8.82;;;5.85;;
50757;SDS011;36732;47.980;11.652;2023-05-23T00:34:53;5.72;;;5.05;;
50757;SDS011;36732;47.980;11.652;2023-05-23T00:37:20;6.50;;;5.40;;
50757;SDS011;36732;47.980;11.652;2023-05-23T00:39:49;9.23;;;5.68;;
50757;SDS011;36732;47.980;11.652;2023-05-23T00:42:15;6.43;;;5.82;;
50757;SDS011;36732;47.980;11.652;2023-05-23T00:44:40;7.93;;;5.30;;
50757;SDS011;36732;47.980;11.652;2023-05-23T00:47:06;7.68;;;5.50;;
50757;SDS011;36732;47.980;11.652;2023-05-23T00:49:32;9.30;;;5.97;;
50757;SDS011;36732;47.980;11.652;2023-05-23T00:51:59;6.97;;;5.63;;
50757;SDS011;36732;47.980;11.652;2023-05-23T00:54:27;7.15;;;5.95;;
50757;SDS011;36732;47.980;11.652;2023-05-23T00:56:57;6.60;;;5.80;;
50757;SDS011;36732;47.980;11.652;2023-05-23T00:59:24;6.05;;;5.32;;
50757;SDS011;36732;47.980;11.652;2023-05-23T01:01:50;7.47;;;5.63;;
50757;SDS011;36732;47.980;11.652;2023-05-23T01:04:18;6.05;;;5.45;;
50757;SDS011;36732;47.980;11.652;2023-05-23T01:06:45;6.10;;;5.50;;
50757;SDS011;36732;47.980;11.652;2023-05-23T01:09:13;7.22;;;5.80;;
50757;SDS011;36732;47.980;11.652;2023-05-23T01:12:04;6.13;;;5.53;;
50757;SDS011;36732;47.980;11.652;2023-05-23T01:17:28;7.20;;;5.80;;
50757;SDS011;36732;47.980;11.652;2023-05-23T01:20:26;6.95;;;5.35;;
50757;SDS011;36732;47.980;11.652;2023-05-23T01:29:33;5.88;;;5.18;;
50757;SDS011;36732;47.980;11.652;2023-05-23T01:32:21;7.20;;;5.75;;
50757;SDS011;36732;47.980;11.652;2023-05-23T01:34:51;7.45;;;5.88;;
50757;SDS011;36732;47.980;11.652;2023-05-23T01:37:17;6.18;;;5.57;;
50757;SDS011;36732;47.980;11.652;2023-05-23T01:39:43;6.35;;;5.75;;
50757;SDS011;36732;47.980;11.652;2023-05-23T01:42:10;6.57;;;5.85;;
50757;SDS011;36732;47.980;11.652;2023-05-23T01:44:36;5.68;;;5.15;;
50757;SDS011;36732;47.980;11.652;2023-05-23T01:47:03;6.20;;;5.60;;
50757;SDS011;36732;47.980;11.652;2023-05-23T01:49:31;6.38;;;5.78;;
50757;SDS011;36732;47.980;11.652;2023-05-23T01:51:58;6.80;;;6.10;;
50757;SDS011;36732;47.980;11.652;2023-05-23T01:54:25;6.43;;;5.80;;
50757;SDS011;36732;47.980;11.652;2023-05-23T01:56:53;7.10;;;5.80;;
50757;SDS011;36732;47.980;11.652;2023-05-23T01:59:21;11.13;;;6.60;;
50757;SDS011;36732;47.980;11.652;2023-05-23T02:01:47;6.97;;;6.28;;
50757;SDS011;36732;47.980;11.652;2023-05-23T02:04:13;7.63;;;5.97;;
50757;SDS011;36732;47.980;11.652;2023-05-23T02:06:39;6.65;;;6.03;;
50757;SDS011;36732;47.980;11.652;2023-05-23T02:09:06;6.85;;;6.07;;
50757;SDS011;36732;47.980;11.652;2023-05-23T02:11:32;7.05;;;6.35;;
50757;SDS011;36732;47.980;11.652;2023-05-23T02:13:59;6.38;;;5.78;;
50757;SDS011;36732;47.980;11.652;2023-05-23T02:16:26;6.43;;;5.82;;
50757;SDS011;36732;47.980;11.652;2023-05-23T02:18:52;7.15;;;5.85;;
50757;SDS011;36732;47.980;11.652;2023-05-23T02:21:20;7.40;;;6.70;;
50757;SDS011;36732;47.980;11.652;2023-05-23T02:23:49;7.35;;;6.28;;
50757;SDS011;36732;47.980;11.652;2023-05-23T02:26:15;8.82;;;6.65;;
50757;SDS011;36732;47.980;11.652;2023-05-23T02:28:40;7.95;;;6.97;;
50757;SDS011;36732;47.980;11.652;2023-05-23T02:31:06;7.40;;;6.28;;
50757;SDS011;36732;47.980;11.652;2023-05-23T02:33:32;8.02;;;6.70;;
50757;SDS011;36732;47.980;11.652;2023-05-23T02:35:57;8.27;;;6.97;;
50757;SDS011;36732;47.980;11.652;2023-05-23T02:38:23;8.30;;;6.65;;
50757;SDS011;36732;47.980;11.652;2023-05-23T02:40:50;8.75;;;6.32;;
50757;SDS011;36732;47.980;11.652;2023-05-23T02:43:17;8.70;;;6.85;;
50757;SDS011;36732;47.980;11.652;2023-05-23T02:45:44;8.35;;;7.45;;
50757;SDS011;36732;47.980;11.652;2023-05-23T02:48:09;7.13;;;6.43;;
50757;SDS011;36732;47.980;11.652;2023-05-23T02:50:36;7.10;;;6.40;;
50757;SDS011;36732;47.980;11.652;2023-05-23T02:53:01;7.82;;;6.43;;
50757;SDS011;36732;47.980;11.652;2023-05-23T02:55:27;7.20;;;6.50;;
50757;SDS011;36732;47.980;11.652;2023-05-23T02:57:53;7.93;;;6.18;;
50757;SDS011;36732;47.980;11.652;2023-05-23T03:00:20;7.05;;;6.20;;
50757;SDS011;36732;47.980;11.652;2023-05-23T03:02:46;7.25;;;6.55;;
50757;SDS011;36732;47.980;11.652;2023-05-23T03:05:12;7.03;;;6.32;;
50757;SDS011;36732;47.980;11.652;2023-05-23T03:07:37;7.93;;;6.47;;
50757;SDS011;36732;47.980;11.652;2023-05-23T03:10:03;8.05;;;7.03;;
50757;SDS011;36732;47.980;11.652;2023-05-23T03:12:30;9.15;;;6.78;;
50757;SDS011;36732;47.980;11.652;2023-05-23T03:14:56;11.57;;;7.20;;
50757;SDS011;36732;47.980;11.652;2023-05-23T03:17:23;8.52;;;6.00;;
50757;SDS011;36732;47.980;11.652;2023-05-23T03:19:49;10.00;;;6.88;;
50757;SDS011;36732;47.980;11.652;2023-05-23T03:22:15;7.10;;;6.50;;
50757;SDS011;36732;47.980;11.652;2023-05-23T03:24:41;6.32;;;5.70;;
50757;SDS011;36732;47.980;11.652;2023-05-23T03:27:07;7.18;;;6.47;;
50757;SDS011;36732;47.980;11.652;2023-05-23T03:29:33;8.68;;;6.75;;
50757;SDS011;36732;47.980;11.652;2023-05-23T03:31:58;7.57;;;6.78;;
50757;SDS011;36732;47.980;11.652;2023-05-23T03:34:24;7.03;;;6.38;;
50757;SDS011;36732;47.980;11.652;2023-05-23T03:36:51;8.65;;;7.15;;
50757;SDS011;36732;47.980;11.652;2023-05-23T03:39:17;6.95;;;6.25;;
50757;SDS011;36732;47.980;11.652;2023-05-23T03:41:42;7.03;;;6.32;;
50757;SDS011;36732;47.980;11.652;2023-05-23T03:44:08;7.72;;;6.47;;
50757;SDS011;36732;47.980;11.652;2023-05-23T03:46:34;7.53;;;6.72;;
50757;SDS011;36732;47.980;11.652;2023-05-23T03:49:00;9.07;;;6.70;;
50757;SDS011;36732;47.980;11.652;2023-05-23T03:51:25;9.23;;;7.20;;
50757;SDS011;36732;47.980;11.652;2023-05-23T03:53:52;10.23;;;6.72;;
50757;SDS011;36732;47.980;11.652;2023-05-23T03:56:17;9.73;;;7.25;;
50757;SDS011;36732;47.980;11.652;2023-05-23T03:58:43;7.70;;;6.75;;
50757;SDS011;36732;47.980;11.652;2023-05-23T04:01:09;10.55;;;7.00;;
50757;SDS011;36732;47.980;11.652;2023-05-23T04:03:35;7.43;;;6.50;;
50757;SDS011;36732;47.980;11.652;2023-05-23T04:06:01;8.98;;;6.80;;
50757;SDS011;36732;47.980;11.652;2023-05-23T04:08:27;7.97;;;6.88;;
50757;SDS011;36732;47.980;11.652;2023-05-23T04:10:54;8.05;;;6.03;;
50757;SDS011;36732;47.980;11.652;2023-05-23T04:13:20;7.43;;;6.68;;
50757;SDS011;36732;47.980;11.652;2023-05-23T04:15:47;8.10;;;7.30;;
50757;SDS011;36732;47.980;11.652;2023-05-23T04:18:12;9.63;;;6.97;;
50757;SDS011;36732;47.980;11.652;2023-05-23T04:20:39;7.75;;;6.95;;
50757;SDS011;36732;47.980;11.652;2023-05-23T04:23:05;7.10;;;6.40;;
50757;SDS011;36732;47.980;11.652;2023-05-23T04:25:31;8.05;;;7.00;;
50757;SDS011;36732;47.980;11.652;2023-05-23T04:27:58;7.57;;;6.88;;
50757;SDS011;36732;47.980;11.652;2023-05-23T04:30:25;7.38;;;6.10;;
50757;SDS011;36732;47.980;11.652;2023-05-23T04:32:51;8.85;;;7.50;;
50757;SDS011;36732;47.980;11.652;2023-05-23T04:35:17;9.73;;;7.45;;
50757;SDS011;36732;47.980;11.652;2023-05-23T04:37:43;9.07;;;6.95;;
50757;SDS011;36732;47.980;11.652;2023-05-23T04:40:09;10.52;;;7.32;;
50757;SDS011;36732;47.980;11.652;2023-05-23T04:42:37;10.77;;;7.65;;
50757;SDS011;36732;47.980;11.652;2023-05-23T04:45:06;8.95;;;7.60;;
50757;SDS011;36732;47.980;11.652;2023-05-23T04:47:33;9.95;;;8.38;;
50757;SDS011;36732;47.980;11.652;2023-05-23T04:49:58;9.40;;;8.02;;
50757;SDS011;36732;47.980;11.652;2023-05-23T04:52:24;9.00;;;7.85;;
50757;SDS011;36732;47.980;11.652;2023-05-23T04:54:52;9.75;;;8.75;;
50757;SDS011;36732;47.980;11.652;2023-05-23T04:57:18;9.00;;;8.10;;
50757;SDS011;36732;47.980;11.652;2023-05-23T04:59:43;9.90;;;8.45;;
50757;SDS011;36732;47.980;11.652;2023-05-23T05:02:10;9.80;;;8.60;;
50757;SDS011;36732;47.980;11.652;2023-05-23T05:04:36;9.82;;;8.82;;
50757;SDS011;36732;47.980;11.652;2023-05-23T05:07:01;11.23;;;8.88;;
50757;SDS011;36732;47.980;11.652;2023-05-23T05:09:27;14.18;;;9.77;;
50757;SDS011;36732;47.980;11.652;2023-05-23T05:11:54;10.93;;;9.48;;
50757;SDS011;36732;47.980;11.652;2023-05-23T05:14:20;9.77;;;8.88;;
50757;SDS011;36732;47.980;11.652;2023-05-23T05:16:46;10.20;;;9.07;;
50757;SDS011;36732;47.980;11.652;2023-05-23T05:19:12;11.52;;;9.15;;
50757;SDS011;36732;47.980;11.652;2023-05-23T05:21:38;10.40;;;9.35;;
50757;SDS011;36732;47.980;11.652;2023-05-23T05:24:04;12.07;;;9.13;;
50757;SDS011;36732;47.980;11.652;2023-05-23T05:26:29;12.18;;;9.10;;
50757;SDS011;36732;47.980;11.652;2023-05-23T05:28:55;11.48;;;8.65;;
50757;SDS011;36732;47.980;11.652;2023-05-23T05:31:22;12.13;;;10.07;;
50757;SDS011;36732;47.980;11.652;2023-05-23T05:33:48;10.43;;;9.32;;
50757;SDS011;36732;47.980;11.652;2023-05-23T05:36:14;9.55;;;8.57;;
50757;SDS011;36732;47.980;11.652;2023-05-23T05:38:40;10.52;;;9.43;;
50757;SDS011;36732;47.980;11.652;2023-05-23T05:41:06;11.75;;;9.57;;
50757;SDS011;36732;47.980;11.652;2023-05-23T05:43:31;10.55;;;9.25;;
50757;SDS011;36732;47.980;11.652;2023-05-23T05:45:57;11.13;;;9.27;;
50757;SDS011;36732;47.980;11.652;2023-05-23T05:48:23;10.77;;;9.55;;
50757;SDS011;36732;47.980;11.652;2023-05-23T05:50:48;10.48;;;9.38;;
50757;SDS011;36732;47.980;11.652;2023-05-23T05:53:14;11.05;;;9.85;;
50757;SDS011;36732;47.980;11.652;2023-05-23T05:55:40;12.70;;;9.43;;
50757;SDS011;36732;47.980;11.652;2023-05-23T05:58:06;11.50;;;9.25;;
50757;SDS011;36732;47.980;11.652;2023-05-23T06:00:32;12.98;;;10.75;;
50757;SDS011;36732;47.980;11.652;2023-05-23T06:03:05;11.02;;;9.35;;
50757;SDS011;36732;47.980;11.652;2023-05-23T06:05:35;13.98;;;10.60;;
50757;SDS011;36732;47.980;11.652;2023-05-23T06:08:02;11.38;;;10.00;;
50757;SDS011;36732;47.980;11.652;2023-05-23T06:10:28;16.15;;;10.93;;
50757;SDS011;36732;47.980;11.652;2023-05-23T06:12:54;13.40;;;10.07;;
50757;SDS011;36732;47.980;11.652;2023-05-23T06:15:22;12.07;;;10.23;;
50757;SDS011;36732;47.980;11.652;2023-05-23T06:17:47;13.60;;;10.18;;
50757;SDS011;36732;47.980;11.652;2023-05-23T06:20:13;12.80;;;10.82;;
50757;SDS011;36732;47.980;11.652;2023-05-23T06:22:39;13.40;;;11.60;;
50757;SDS011;36732;47.980;11.652;2023-05-23T06:25:05;13.38;;;11.43;;
50757;SDS011;36732;47.980;11.652;2023-05-23T06:27:31;15.00;;;11.13;;
50757;SDS011;36732;47.980;11.652;2023-05-23T06:29:57;11.63;;;10.48;;
50757;SDS011;36732;47.980;11.652;2023-05-23T06:32:22;12.07;;;10.65;;
50757;SDS011;36732;47.980;11.652;2023-05-23T06:34:48;12.93;;;10.25;;
50757;SDS011;36732;47.980;11.652;2023-05-23T06:37:14;12.50;;;10.88;;
50757;SDS011;36732;47.980;11.652;2023-05-23T06:39:40;12.15;;;10.70;;
50757;SDS011;36732;47.980;11.652;2023-05-23T06:42:06;12.85;;;10.07;;
50757;SDS011;36732;47.980;11.652;2023-05-23T06:44:32;13.13;;;10.57;;
50757;SDS011;36732;47.980;11.652;2023-05-23T06:46:57;12.25;;;10.55;;
50757;SDS011;36732;47.980;11.652;2023-05-23T06:49:24;14.00;;;10.18;;
50757;SDS011;36732;47.980;11.652;2023-05-23T06:51:49;10.65;;;9.40;;
50757;SDS011;36732;47.980;11.652;2023-05-23T06:54:16;10.57;;;9.48;;
50757;SDS011;36732;47.980;11.652;2023-05-23T06:56:42;12.82;;;10.60;;
50757;SDS011;36732;47.980;11.652;2023-05-23T06:59:08;11.55;;;10.05;;
50757;SDS011;36732;47.980;11.652;2023-05-23T07:01:34;11.32;;;10.13;;
50757;SDS011;36732;47.980;11.652;2023-05-23T07:04:00;11.90;;;9.77;;
50757;SDS011;36732;47.980;11.652;2023-05-23T07:06:25;11.35;;;10.13;;
50757;SDS011;36732;47.980;11.652;2023-05-23T07:08:51;11.65;;;10.00;;
50757;SDS011;36732;47.980;11.652;2023-05-23T07:11:19;12.70;;;10.02;;
50757;SDS011;36732;47.980;11.652;2023-05-23T07:13:46;13.25;;;10.20;;
50757;SDS011;36732;47.980;11.652;2023-05-23T07:16:11;12.98;;;11.52;;
50757;SDS011;36732;47.980;11.652;2023-05-23T07:18:37;13.60;;;10.80;;
50757;SDS011;36732;47.980;11.652;2023-05-23T07:21:03;12.70;;;10.60;;
50757;SDS011;36732;47.980;11.652;2023-05-23T07:23:32;12.57;;;10.57;;
50757;SDS011;36732;47.980;11.652;2023-05-23T07:25:58;13.27;;;10.98;;
50757;SDS011;36732;47.980;11.652;2023-05-23T07:28:25;14.63;;;10.43;;
50757;SDS011;36732;47.980;11.652;2023-05-23T07:30:51;11.60;;;10.30;;
50757;SDS011;36732;47.980;11.652;2023-05-23T07:33:17;13.13;;;10.85;;
50757;SDS011;36732;47.980;11.652;2023-05-23T07:35:43;18.02;;;10.75;;
50757;SDS011;36732;47.980;11.652;2023-05-23T07:38:09;13.07;;;10.23;;
50757;SDS011;36732;47.980;11.652;2023-05-23T07:40:34;13.30;;;10.77;;
50757;SDS011;36732;47.980;11.652;2023-05-23T07:43:02;15.90;;;10.52;;
50757;SDS011;36732;47.980;11.652;2023-05-23T07:45:28;12.32;;;9.70;;
50757;SDS011;36732;47.980;11.652;2023-05-23T07:47:54;10.65;;;9.52;;
50757;SDS011;36732;47.980;11.652;2023-05-23T07:50:19;13.30;;;9.07;;
50757;SDS011;36732;47.980;11.652;2023-05-23T07:52:45;13.60;;;11.02;;
50757;SDS011;36732;47.980;11.652;2023-05-23T07:55:11;13.05;;;10.85;;
50757;SDS011;36732;47.980;11.652;2023-05-23T07:57:37;14.23;;;11.02;;
50757;SDS011;36732;47.980;11.652;2023-05-23T08:00:03;12.57;;;10.98;;
50757;SDS011;36732;47.980;11.652;2023-05-23T08:02:31;12.48;;;10.30;;
50757;SDS011;36732;47.980;11.652;2023-05-23T08:04:56;12.95;;;11.23;;
50757;SDS011;36732;47.980;11.652;2023-05-23T08:07:23;13.52;;;10.75;;
50757;SDS011;36732;47.980;11.652;2023-05-23T08:09:49;14.02;;;10.93;;
50757;SDS011;36732;47.980;11.652;2023-05-23T08:12:15;12.43;;;11.15;;
50757;SDS011;36732;47.980;11.652;2023-05-23T08:14:40;15.68;;;11.60;;
50757;SDS011;36732;47.980;11.652;2023-05-23T08:17:06;17.85;;;13.27;;
50757;SDS011;36732;47.980;11.652;2023-05-23T08:19:32;16.13;;;13.10;;
50757;SDS011;36732;47.980;11.652;2023-05-23T08:21:57;15.02;;;12.82;;
50757;SDS011;36732;47.980;11.652;2023-05-23T08:24:23;14.18;;;12.63;;
50757;SDS011;36732;47.980;11.652;2023-05-23T08:26:49;18.20;;;12.50;;
50757;SDS011;36732;47.980;11.652;2023-05-23T08:29:15;14.07;;;12.40;;
50757;SDS011;36732;47.980;11.652;2023-05-23T08:31:40;14.90;;;12.63;;
50757;SDS011;36732;47.980;11.652;2023-05-23T08:34:06;12.05;;;10.75;;
50757;SDS011;36732;47.980;11.652;2023-05-23T08:36:32;15.35;;;12.48;;
50757;SDS011;36732;47.980;11.652;2023-05-23T08:39:00;16.40;;;11.85;;
50757;SDS011;36732;47.980;11.652;2023-05-23T08:41:26;16.60;;;13.73;;
50757;SDS011;36732;47.980;11.652;2023-05-23T08:43:53;18.52;;;11.95;;
50757;SDS011;36732;47.980;11.652;2023-05-23T08:46:21;15.25;;;13.07;;
50757;SDS011;36732;47.980;11.652;2023-05-23T08:48:50;15.52;;;11.98;;
50757;SDS011;36732;47.980;11.652;2023-05-23T08:51:24;14.40;;;12.05;;
50757;SDS011;36732;47.980;11.652;2023-05-23T08:53:51;16.50;;;12.27;;
50757;SDS011;36732;47.980;11.652;2023-05-23T08:56:20;14.15;;;12.65;;
50757;SDS011;36732;47.980;11.652;2023-05-23T08:58:49;15.30;;;11.65;;
50757;SDS011;36732;47.980;11.652;2023-05-23T09:01:17;15.80;;;11.98;;
50757;SDS011;36732;47.980;11.652;2023-05-23T09:03:44;13.57;;;11.98;;
50757;SDS011;36732;47.980;11.652;2023-05-23T09:06:10;15.75;;;12.77;;
50757;SDS011;36732;47.980;11.652;2023-05-23T09:08:36;16.35;;;13.00;;
50757;SDS011;36732;47.980;11.652;2023-05-23T09:11:03;12.70;;;10.73;;
50757;SDS011;36732;47.980;11.652;2023-05-23T09:13:31;16.08;;;12.10;;
50757;SDS011;36732;47.980;11.652;2023-05-23T09:21:01;14.93;;;11.88;;
50757;SDS011;36732;47.980;11.652;2023-05-23T09:23:30;18.42;;;13.23;;
50757;SDS011;36732;47.980;11.652;2023-05-23T09:26:04;14.30;;;12.32;;
50757;SDS011;36732;47.980;11.652;2023-05-23T09:28:35;14.32;;;12.35;;
50757;SDS011;36732;47.980;11.652;2023-05-23T09:31:05;17.17;;;12.25;;
50757;SDS011;36732;47.980;11.652;2023-05-23T09:33:39;20.85;;;13.90;;
50757;SDS011;36732;47.980;11.652;2023-05-23T09:36:11;14.63;;;12.43;;
50757;SDS011;36732;47.980;11.652;2023-05-23T09:38:40;18.90;;;12.82;;
50757;SDS011;36732;47.980;11.652;2023-05-23T09:41:10;16.23;;;13.18;;
50757;SDS011;36732;47.980;11.652;2023-05-23T09:43:39;19.38;;;13.48;;
50757;SDS011;36732;47.980;11.652;2023-05-23T09:46:15;15.63;;;12.93;;
50757;SDS011;36732;47.980;11.652;2023-05-23T09:48:47;27.52;;;13.70;;
50757;SDS011;36732;47.980;11.652;2023-05-23T09:51:16;22.13;;;12.55;;
50757;SDS011;36732;47.980;11.652;2023-05-23T09:53:45;16.45;;;13.95;;
50757;SDS011;36732;47.980;11.652;2023-05-23T09:56:11;16.50;;;12.88;;
50757;SDS011;36732;47.980;11.652;2023-05-23T09:58:39;19.35;;;12.85;;
50757;SDS011;36732;47.980;11.652;2023-05-23T10:01:15;19.98;;;14.52;;
50757;SDS011;36732;47.980;11.652;2023-05-23T10:06:20;18.75;;;12.20;;
50757;SDS011;36732;47.980;11.652;2023-05-23T10:08:56;16.05;;;11.75;;
50757;SDS011;36732;47.980;11.652;2023-05-23T10:14:00;15.93;;;11.95;;
50757;SDS011;36732;47.980;11.652;2023-05-23T10:22:03;17.25;;;13.50;;
50757;SDS011;36732;47.980;11.652;2023-05-23T10:24:33;15.77;;;12.70;;
50757;SDS011;36732;47.980;11.652;2023-05-23T10:27:00;18.33;;;13.40;;
50757;SDS011;36732;47.980;11.652;2023-05-23T10:29:26;16.10;;;13.50;;
50757;SDS011;36732;47.980;11.652;2023-05-23T10:31:54;17.45;;;13.98;;
50757;SDS011;36732;47.980;11.652;2023-05-23T10:37:26;19.25;;;14.02;;
50757;SDS011;36732;47.980;11.652;2023-05-23T10:40:17;18.25;;;15.18;;
50757;SDS011;36732;47.980;11.652;2023-05-23T10:42:55;20.67;;;16.15;;
50757;SDS011;36732;47.980;11.652;2023-05-23T10:45:29;19.90;;;14.23;;
50757;SDS011;36732;47.980;11.652;2023-05-23T10:48:04;17.75;;;15.75;;
50757;SDS011;36732;47.980;11.652;2023-05-23T10:53:39;17.27;;;14.90;;
50757;SDS011;36732;47.980;11.652;2023-05-23T10:56:07;19.17;;;15.48;;
50757;SDS011;36732;47.980;11.652;2023-05-23T10:58:35;18.48;;;16.35;;
50757;SDS011;36732;47.980;11.652;2023-05-23T11:01:05;20.13;;;15.15;;
50757;SDS011;36732;47.980;11.652;2023-05-23T11:03:33;24.15;;;16.60;;
50757;SDS011;36732;47.980;11.652;2023-05-23T11:06:37;19.35;;;16.77;;
50757;SDS011;36732;47.980;11.652;2023-05-23T11:11:59;23.00;;;17.13;;
50757;SDS011;36732;47.980;11.652;2023-05-23T11:14:50;19.00;;;16.65;;
50757;SDS011;36732;47.980;11.652;2023-05-23T11:17:24;17.33;;;14.15;;
50757;SDS011;36732;47.980;11.652;2023-05-23T11:22:32;17.08;;;15.25;;
50757;SDS011;36732;47.980;11.652;2023-05-23T11:24:59;17.45;;;15.25;;
50757;SDS011;36732;47.980;11.652;2023-05-23T11:27:33;21.35;;;17.25;;
50757;SDS011;36732;47.980;11.652;2023-05-23T11:30:12;21.95;;;15.00;;
50757;SDS011;36732;47.980;11.652;2023-05-23T11:32:41;19.77;;;17.30;;
50757;SDS011;36732;47.980;11.652;2023-05-23T11:35:14;22.35;;;16.88;;
50757;SDS011;36732;47.980;11.652;2023-05-23T11:37:41;19.52;;;17.02;;
50757;SDS011;36732;47.980;11.652;2023-05-23T11:42:55;19.02;;;15.48;;
50757;SDS011;36732;47.980;11.652;2023-05-23T11:45:22;20.15;;;15.77;;
50757;SDS011;36732;47.980;11.652;2023-05-23T11:47:48;19.13;;;15.13;;
50757;SDS011;36732;47.980;11.652;2023-05-23T11:50:14;18.20;;;15.38;;
50757;SDS011;36732;47.980;11.652;2023-05-23T11:52:40;18.88;;;14.23;;
50757;SDS011;36732;47.980;11.652;2023-05-23T11:55:07;17.10;;;14.00;;
50757;SDS011;36732;47.980;11.652;2023-05-23T11:57:36;16.05;;;14.35;;
50757;SDS011;36732;47.980;11.652;2023-05-23T12:00:04;17.98;;;14.77;;
50757;SDS011;36732;47.980;11.652;2023-05-23T12:02:37;15.27;;;13.48;;
50757;SDS011;36732;47.980;11.652;2023-05-23T12:05:11;15.93;;;13.13;;
50757;SDS011;36732;47.980;11.652;2023-05-23T12:07:46;18.13;;;13.77;;
50757;SDS011;36732;47.980;11.652;2023-05-23T12:12:42;13.73;;;11.77;;
50757;SDS011;36732;47.980;11.652;2023-05-23T12:15:09;14.30;;;11.93;;
50757;SDS011;36732;47.980;11.652;2023-05-23T12:17:36;13.82;;;12.07;;
50757;SDS011;36732;47.980;11.652;2023-05-23T12:20:06;13.20;;;11.55;;
50757;SDS011;36732;47.980;11.652;2023-05-23T12:22:33;15.40;;;13.15;;
50757;SDS011;36732;47.980;11.652;2023-05-23T12:24:59;15.63;;;11.70;;
50757;SDS011;36732;47.980;11.652;2023-05-23T12:27:28;14.23;;;11.80;;
50757;SDS011;36732;47.980;11.652;2023-05-23T12:30:05;12.60;;;10.65;;
50757;SDS011;36732;47.980;11.652;2023-05-23T12:32:38;12.57;;;10.85;;
50757;SDS011;36732;47.980;11.652;2023-05-23T12:35:09;13.90;;;11.13;;
50757;SDS011;36732;47.980;11.652;2023-05-23T12:37:44;14.07;;;11.15;;
50757;SDS011;36732;47.980;11.652;2023-05-23T12:42:49;15.13;;;11.45;;
50757;SDS011;36732;47.980;11.652;2023-05-23T12:45:17;13.02;;;10.88;;
50757;SDS011;36732;47.980;11.652;2023-05-23T12:48:04;11.57;;;10.27;;
50757;SDS011;36732;47.980;11.652;2023-05-23T12:50:31;13.93;;;10.52;;
50757;SDS011;36732;47.980;11.652;2023-05-23T12:52:57;14.43;;;10.65;;
50757;SDS011;36732;47.980;11.652;2023-05-23T12:55:23;10.63;;;9.52;;
50757;SDS011;36732;47.980;11.652;2023-05-23T12:57:49;11.18;;;10.07;;
50757;SDS011;36732;47.980;11.652;2023-05-23T13:00:15;12.20;;;9.95;;
50757;SDS011;36732;47.980;11.652;2023-05-23T13:02:41;12.82;;;9.95;;
50757;SDS011;36732;47.980;11.652;2023-05-23T13:05:07;10.75;;;9.13;;
50757;SDS011;36732;47.980;11.652;2023-05-23T13:07:33;11.57;;;9.85;;
50757;SDS011;36732;47.980;11.652;2023-05-23T13:10:00;12.98;;;10.45;;
50757;SDS011;36732;47.980;11.652;2023-05-23T13:12:26;14.13;;;11.00;;
50757;SDS011;36732;47.980;11.652;2023-05-23T13:14:52;13.57;;;10.57;;
50757;SDS011;36732;47.980;11.652;2023-05-23T13:17:18;11.57;;;9.52;;
50757;SDS011;36732;47.980;11.652;2023-05-23T13:19:44;10.82;;;9.52;;
50757;SDS011;36732;47.980;11.652;2023-05-23T13:22:11;11.00;;;9.45;;
50757;SDS011;36732;47.980;11.652;2023-05-23T13:24:37;11.57;;;9.07;;
50757;SDS011;36732;47.980;11.652;2023-05-23T13:27:05;10.60;;;9.30;;
50757;SDS011;36732;47.980;11.652;2023-05-23T13:29:31;10.43;;;8.85;;
50757;SDS011;36732;47.980;11.652;2023-05-23T13:31:58;8.65;;;6.80;;
50757;SDS011;36732;47.980;11.652;2023-05-23T13:34:24;12.00;;;6.57;;
50757;SDS011;36732;47.980;11.652;2023-05-23T13:36:52;12.60;;;7.47;;
50757;SDS011;36732;47.980;11.652;2023-05-23T13:39:18;9.20;;;6.22;;
50757;SDS011;36732;47.980;11.652;2023-05-23T13:41:46;7.03;;;5.57;;
50757;SDS011;36732;47.980;11.652;2023-05-23T13:44:13;10.45;;;6.40;;
50757;SDS011;36732;47.980;11.652;2023-05-23T13:46:39;10.50;;;5.65;;
50757;SDS011;36732;47.980;11.652;2023-05-23T13:49:05;7.55;;;5.70;;
50757;SDS011;36732;47.980;11.652;2023-05-23T13:51:30;5.60;;;5.03;;
50757;SDS011;36732;47.980;11.652;2023-05-23T13:53:56;7.72;;;5.60;;
50757;SDS011;36732;47.980;11.652;2023-05-23T13:56:22;7.80;;;5.07;;
50757;SDS011;36732;47.980;11.652;2023-05-23T13:58:48;6.07;;;4.93;;
50757;SDS011;36732;47.980;11.652;2023-05-23T14:01:14;6.03;;;4.30;;
50757;SDS011;36732;47.980;11.652;2023-05-23T14:03:41;6.85;;;4.85;;
50757;SDS011;36732;47.980;11.652;2023-05-23T14:06:06;11.82;;;5.65;;
50757;SDS011;36732;47.980;11.652;2023-05-23T14:08:32;7.05;;;4.97;;
50757;SDS011;36732;47.980;11.652;2023-05-23T14:10:58;7.10;;;4.45;;
50757;SDS011;36732;47.980;11.652;2023-05-23T14:13:24;6.75;;;5.10;;
50757;SDS011;36732;47.980;11.652;2023-05-23T14:15:50;7.65;;;5.40;;
50757;SDS011;36732;47.980;11.652;2023-05-23T14:18:17;9.07;;;6.15;;
50757;SDS011;36732;47.980;11.652;2023-05-23T14:20:43;8.20;;;6.30;;
50757;SDS011;36732;47.980;11.652;2023-05-23T14:23:08;7.57;;;6.03;;
50757;SDS011;36732;47.980;11.652;2023-05-23T14:25:34;8.60;;;5.63;;
50757;SDS011;36732;47.980;11.652;2023-05-23T14:28:00;7.35;;;5.80;;
50757;SDS011;36732;47.980;11.652;2023-05-23T14:30:26;9.00;;;5.35;;
50757;SDS011;36732;47.980;11.652;2023-05-23T14:32:51;7.75;;;5.60;;
50757;SDS011;36732;47.980;11.652;2023-05-23T14:35:18;7.40;;;6.60;;
50757;SDS011;36732;47.980;11.652;2023-05-23T14:37:46;6.68;;;5.50;;
50757;SDS011;36732;47.980;11.652;2023-05-23T14:40:12;7.22;;;5.85;;
50757;SDS011;36732;47.980;11.652;2023-05-23T14:42:40;8.38;;;5.10;;
50757;SDS011;36732;47.980;11.652;2023-05-23T14:45:06;5.55;;;4.90;;
50757;SDS011;36732;47.980;11.652;2023-05-23T14:47:32;6.80;;;5.10;;
50757;SDS011;36732;47.980;11.652;2023-05-23T14:49:59;6.55;;;5.43;;
50757;SDS011;36732;47.980;11.652;2023-05-23T14:52:25;5.78;;;5.28;;
50757;SDS011;36732;47.980;11.652;2023-05-23T14:54:51;5.57;;;4.00;;
50757;SDS011;36732;47.980;11.652;2023-05-23T14:57:16;5.72;;;4.57;;
50757;SDS011;36732;47.980;11.652;2023-05-23T14:59:42;5.88;;;5.00;;
50757;SDS011;36732;47.980;11.652;2023-05-23T15:02:08;6.78;;;5.20;;
50757;SDS011;36732;47.980;11.652;2023-05-23T15:04:34;4.50;;;3.97;;
50757;SDS011;36732;47.980;11.652;2023-05-23T15:07:01;5.18;;;4.20;;